Time;durP1;ratioP1;P1;durP2;ratioP2;P2;SDS_P1;SDS_P2;PMS_P1;PMS_P2;Temp;Humidity;BMP_temperature;BMP_pressure;BME280_temperature;BME280_humidity;BME280_pressure;Samples;Min_cycle;Max_cycle;Signal;HPM_P1;HPM_P2
2021/11/24 00:00:27;;;;;;;;;;;;;;;-1.50;82.44;97760.37;30002;983;1885;-67
2021/11/24 00:00:57;;;;;;;;;;;;;;;-1.50;82.42;97765.72;30002;983;1881;-67
2021/11/24 00:01:28;;;;;;;;;;;;;;;-1.49;82.64;97754.06;30002;983;1868;-58
2021/11/24 00:01:59;;;;;;;;;;;;;;;-1.49;82.55;97758.56;30002;983;1877;-67
2021/11/24 00:02:32;;;;;;;;;;;;;;;-1.50;82.20;97755.06;30002;983;1885;-68
2021/11/24 00:03:03;;;;;;;;;;;;;;;-1.48;82.48;97750.38;30002;983;1881;-68
2021/11/24 00:03:34;;;;;;;;;;;;;;;-1.48;82.15;97758.34;30002;983;1886;-69
2021/11/24 00:04:05;;;;;;;;;;;;;;;-1.47;82.40;97759.19;30002;982;1801;-67
2021/11/24 00:04:36;;;;;;;;;;;;;;;-1.47;82.24;97754.69;30002;982;1868;-67
2021/11/24 00:05:08;;;;;;;;;;;;;;;-1.47;82.50;97751.19;30002;982;1877;-68
2021/11/24 00:05:39;;;;;;;;;;;;;;;-1.48;82.42;97758.34;30001;982;1886;-67
2021/11/24 00:06:10;;;;;;;;;;;;;;;-1.46;82.52;97756.31;30001;982;1881;-68
2021/11/24 00:06:40;;;;;;;;;;;;;;;-1.46;82.08;97750.19;30001;982;1886;-67
2021/11/24 00:07:12;;;;;;;;;;;;;;;-1.47;82.14;97754.69;30001;983;1881;-67
2021/11/24 00:07:43;;;;;;;;;;;;;;;-1.47;82.18;97752.03;30001;983;1885;-67
2021/11/24 00:08:13;;;;;;;;;;;;;;;-1.46;82.31;97755.50;30001;983;1881;-67
2021/11/24 00:08:44;;;;;;;;;;;;;;;-1.46;82.23;97760.81;30001;983;1868;-58
2021/11/24 00:09:15;;;;;;;;;;;;;;;-1.48;82.30;97758.34;30002;983;1779;-67
2021/11/24 00:09:46;;;;;;;;;;;;;;;-1.48;82.10;97753.03;30001;983;1885;-67
2021/11/24 00:10:18;;;;;;;;;;;;;;;-1.48;82.58;97753.03;30001;983;1881;-68
2021/11/24 00:10:49;;;;;;;;;;;;;;;-1.46;82.49;97755.50;30001;983;1886;-67
2021/11/24 00:11:20;;;;;;;;;;;;;;;-1.46;82.52;97751.00;30001;982;1881;-68
2021/11/24 00:11:51;;;;;;;;;;;;;;;-1.47;82.37;97760.00;30001;982;1886;-67
2021/11/24 00:12:22;;;;;;;;;;;;;;;-1.47;82.56;97752.03;30001;982;1881;-67
2021/11/24 00:12:52;;;;;;;;;;;;;;;-1.46;82.37;97756.31;30002;982;1875;-58
2021/11/24 00:13:23;;;;;;;;;;;;;;;-1.46;82.21;97751.00;30001;982;1864;-69
2021/11/24 00:13:55;;;;;;;;;;;;;;;-1.46;82.06;97756.31;30001;983;1881;-67
2021/11/24 00:14:26;;;;;;;;;;;;;;;-1.47;82.44;97754.69;30001;983;1881;-67
2021/11/24 00:14:57;;;;;;;;;;;;;;;-1.47;82.08;97749.34;30001;986;1885;-67
2021/11/24 00:15:30;;;;;;;;;;;;;;;-1.47;82.30;97749.34;30001;983;1863;-69
2021/11/24 00:16:01;;;;;;;;;;;;;;;-1.47;82.38;97754.69;30001;983;1881;-68
2021/11/24 00:16:32;;;;;;;;;;;;;;;-1.47;82.46;97749.34;30001;983;1881;-68
2021/11/24 00:17:03;;;;;;;;;;;;;;;-1.47;82.46;97749.34;30001;983;1885;-67
2021/11/24 00:17:34;;;;;;;;;;;;;;;-1.47;82.46;97749.34;30001;983;1881;-67
2021/11/24 00:18:05;;;;;;;;;;;;;;;-1.47;82.27;97749.34;30001;983;1885;-67
2021/11/24 00:18:36;;;;;;;;;;;;;;;-1.48;82.22;97747.72;30001;983;1864;-67
2021/11/24 00:19:07;;;;;;;;;;;;;;;-1.48;82.45;97746.88;30001;982;1881;-66
2021/11/24 00:19:37;;;;;;;;;;;;;;;-1.48;82.32;97753.03;30001;984;1850;-68
2021/11/24 00:20:09;;;;;;;;;;;;;;;-1.49;82.45;97756.72;30001;982;1877;-68
2021/11/24 00:20:40;;;;;;;;;;;;;;;-1.49;82.75;97751.38;30001;982;1877;-67
2021/11/24 00:21:10;;;;;;;;;;;;;;;-1.48;82.60;97753.03;30001;982;1882;-69
2021/11/24 00:21:42;;;;;;;;;;;;;;;-1.48;82.64;97758.34;30001;983;1876;-67
2021/11/24 00:22:13;;;;;;;;;;;;;;;-1.47;82.65;97753.84;30002;983;1845;-68
2021/11/24 00:22:44;;;;;;;;;;;;;;;-1.47;82.67;97753.84;30001;976;1879;-67
2021/11/24 00:23:15;;;;;;;;;;;;;;;-1.48;82.46;97753.03;30001;983;1881;-68
2021/11/24 00:23:47;;;;;;;;;;;;;;;-1.46;82.46;97755.50;30001;983;1876;-68
2021/11/24 00:24:18;;;;;;;;;;;;;;;-1.48;82.30;97758.34;30001;983;1881;-57
2021/11/24 00:24:49;;;;;;;;;;;;;;;-1.49;82.46;97756.72;30001;983;1877;-68
2021/11/24 00:25:20;;;;;;;;;;;;;;;-1.51;82.50;97756.09;30001;983;1881;-68
2021/11/24 00:25:51;;;;;;;;;;;;;;;-1.50;82.61;97757.72;30001;983;1877;-68
2021/11/24 00:26:22;;;;;;;;;;;;;;;-1.49;82.62;97762.03;30001;982;1864;-57
2021/11/24 00:26:52;;;;;;;;;;;;;;;-1.48;82.27;97755.69;30001;974;1892;-67
2021/11/24 00:27:23;;;;;;;;;;;;;;;-1.51;82.48;97758.75;30001;982;1881;-68
2021/11/24 00:27:54;;;;;;;;;;;;;;;-1.52;82.59;97754.44;30001;982;1877;-68
2021/11/24 00:28:25;;;;;;;;;;;;;;;-1.52;82.47;97757.09;30002;982;1782;-67
2021/11/24 00:28:56;;;;;;;;;;;;;;;-1.51;82.45;97757.91;30001;983;1859;-67
2021/11/24 00:29:27;;;;;;;;;;;;;;;-1.51;82.52;97756.09;30001;983;1876;-67
2021/11/24 00:29:58;;;;;;;;;;;;;;;-1.52;82.80;97762.41;30001;983;1876;-67
2021/11/24 00:30:29;;;;;;;;;;;;;;;-1.50;82.57;97755.06;30001;983;1881;-68
2021/11/24 00:31:00;;;;;;;;;;;;;;;-1.48;82.52;97757.53;30001;983;1877;-67
2021/11/24 00:31:31;;;;;;;;;;;;;;;-1.49;82.14;97755.88;30001;983;1867;-67
2021/11/24 00:32:02;;;;;;;;;;;;;;;-1.52;82.53;97751.78;30001;983;1877;-67
2021/11/24 00:32:33;;;;;;;;;;;;;;;-1.52;82.56;97751.78;30001;983;1864;-67
2021/11/24 00:33:04;;;;;;;;;;;;;;;-1.50;82.48;97755.06;30001;983;1872;-68
2021/11/24 00:33:35;;;;;;;;;;;;;;;-1.50;82.33;97755.06;30001;983;1881;-67
2021/11/24 00:34:06;;;;;;;;;;;;;;;-1.51;82.46;97758.75;30001;982;1877;-69
2021/11/24 00:34:37;;;;;;;;;;;;;;;-1.48;82.31;97752.22;30001;982;1882;-67
2021/11/24 00:35:08;;;;;;;;;;;;;;;-1.49;82.37;97751.38;30001;982;1877;-69
2021/11/24 00:35:40;;;;;;;;;;;;;;;-1.47;82.32;97754.69;30001;982;1881;-68
2021/11/24 00:36:11;;;;;;;;;;;;;;;-1.47;82.34;97749.34;30001;982;1877;-68
2021/11/24 00:36:41;;;;;;;;;;;;;;;-1.45;82.42;97757.16;30001;983;1863;-68
2021/11/24 00:37:13;;;;;;;;;;;;;;;-1.45;82.25;97747.31;30001;983;1872;-68
2021/11/24 00:37:44;;;;;;;;;;;;;;;-1.43;82.13;97755.13;30001;983;1863;-68
2021/11/24 00:38:15;;;;;;;;;;;;;;;-1.41;81.92;97756.56;30001;985;1855;-67
2021/11/24 00:38:46;;;;;;;;;;;;;;;-1.41;81.88;97748.56;30001;983;1881;-67
2021/11/24 00:39:17;;;;;;;;;;;;;;;-1.41;81.92;97753.91;30001;983;1877;-69
2021/11/24 00:39:48;;;;;;;;;;;;;;;-1.43;81.70;97745.28;30001;983;1881;-68
2021/11/24 00:40:19;;;;;;;;;;;;;;;-1.43;81.77;97757.78;30001;983;1877;-68
2021/11/24 00:40:50;;;;;;;;;;;;;;;-1.41;81.75;97753.91;30001;982;1881;-68
2021/11/24 00:41:21;;;;;;;;;;;;;;;-1.42;81.83;97748.78;30001;982;1877;-68
2021/11/24 00:41:52;;;;;;;;;;;;;;;-1.45;81.95;97752.66;30001;982;1881;-58
2021/11/24 00:42:22;;;;;;;;;;;;;;;-1.47;82.07;97749.34;30001;982;1877;-68
2021/11/24 00:42:53;;;;;;;;;;;;;;;-1.46;82.05;97748.34;30001;982;1882;-67
2021/11/24 00:43:26;;;;;;;;;;;;;;;-1.45;82.19;97747.31;30001;982;1860;-68
2021/11/24 00:43:57;;;;;;;;;;;;;;;-1.44;81.91;97748.16;30001;983;1876;-67
2021/11/24 00:44:28;;;;;;;;;;;;;;;-1.45;82.09;97751.81;30001;983;1876;-68
2021/11/24 00:44:59;;;;;;;;;;;;;;;-1.45;81.98;97755.31;30001;983;1881;-58
2021/11/24 00:45:31;;;;;;;;;;;;;;;-1.46;81.92;97756.31;30001;983;1877;-57
2021/11/24 00:46:01;;;;;;;;;;;;;;;-1.48;81.80;97750.38;30001;983;1881;-68
2021/11/24 00:46:33;;;;;;;;;;;;;;;-1.48;81.95;97753.03;30001;983;1859;-68
2021/11/24 00:47:04;;;;;;;;;;;;;;;-1.48;81.89;97757.53;30001;983;1877;-67
2021/11/24 00:47:35;;;;;;;;;;;;;;;-1.48;82.23;97752.22;30001;983;1877;-68
2021/11/24 00:48:07;;;;;;;;;;;;;;;-1.50;82.01;97749.75;30001;982;1881;-69
2021/11/24 00:48:37;;;;;;;;;;;;;;;-1.51;82.17;97753.41;30001;982;1877;-68
2021/11/24 00:49:09;;;;;;;;;;;;;;;-1.51;82.18;97748.09;30001;982;1881;-68
2021/11/24 00:49:40;;;;;;;;;;;;;;;-1.50;82.19;97749.75;30001;985;1877;-67
2021/11/24 00:50:10;;;;;;;;;;;;;;;-1.48;82.42;97747.72;30001;982;1882;-67
2021/11/24 00:50:42;;;;;;;;;;;;;;;-1.47;82.28;97744.03;30001;982;1877;-68
2021/11/24 00:51:12;;;;;;;;;;;;;;;-1.47;82.15;97746.69;30001;982;1882;-66
2021/11/24 00:51:43;;;;;;;;;;;;;;;-1.46;82.26;97740.34;30001;983;1859;-67
2021/11/24 00:52:14;;;;;;;;;;;;;;;-1.46;82.22;97744.84;30001;983;1876;-67
2021/11/24 00:52:45;;;;;;;;;;;;;;;-1.46;82.40;97740.34;30001;983;1877;-68
2021/11/24 00:53:16;;;;;;;;;;;;;;;-1.47;82.01;97743.22;30001;983;1881;-68
2021/11/24 00:53:47;;;;;;;;;;;;;;;-1.48;82.15;97733.56;30001;983;1877;-69
2021/11/24 00:54:18;;;;;;;;;;;;;;;-1.47;82.07;97740.53;30001;983;1881;-67
2021/11/24 00:54:48;;;;;;;;;;;;;;;-1.50;82.26;97733.78;30001;983;1859;-57
2021/11/24 00:55:19;;;;;;;;;;;;;;;-1.54;82.09;97737.84;30001;983;1877;-58
2021/11/24 00:55:51;;;;;;;;;;;;;;;-1.58;82.43;97736.59;30001;982;1877;-69
2021/11/24 00:56:22;;;;;;;;;;;;;;;-1.60;82.47;97738.63;30001;982;1864;-66
2021/11/24 00:56:53;;;;;;;;;;;;;;;-1.62;82.59;97740.66;30001;982;1855;-57
2021/11/24 00:57:24;;;;;;;;;;;;;;;-1.63;82.47;97743.50;30001;982;1882;-68
2021/11/24 00:57:55;;;;;;;;;;;;;;;-1.65;82.68;97738.37;30001;982;1877;-67
2021/11/24 00:58:26;;;;;;;;;;;;;;;-1.66;82.74;97739.38;30001;983;1881;-57
2021/11/24 00:58:57;;;;;;;;;;;;;;;-1.66;83.15;97738.56;30001;983;1876;-68
2021/11/24 00:59:29;;;;;;;;;;;;;;;-1.69;82.94;97745.91;30001;983;1881;-57
2021/11/24 00:59:59;;;;;;;;;;;;;;;-1.70;82.85;97749.59;30001;983;1876;-68
2021/11/24 01:00:30;;;;;;;;;;;;;;;-1.71;82.74;97742.63;30001;983;1881;-68
2021/11/24 01:01:01;;;;;;;;;;;;;;;-1.73;82.94;97749.16;30001;983;1859;-68
2021/11/24 01:01:32;;;;;;;;;;;;;;;-1.76;82.88;97746.91;30001;983;1859;-68
2021/11/24 01:02:03;;;;;;;;;;;;;;;-1.79;83.05;97744.63;30001;983;1859;-68
2021/11/24 01:02:34;;;;;;;;;;;;;;;-1.83;83.10;97746.03;30001;983;1877;-69
2021/11/24 01:03:05;;;;;;;;;;;;;;;-1.86;83.37;97741.09;30001;983;1877;-57
2021/11/24 01:03:35;;;;;;;;;;;;;;;-1.89;83.78;97749.47;30001;982;1881;-69
2021/11/24 01:04:06;;;;;;;;;;;;;;;-1.93;83.75;97732.25;30001;982;1877;-68
2021/11/24 01:04:37;;;;;;;;;;;;;;;-1.94;83.75;97742.06;30001;982;1881;-68
2021/11/24 01:05:08;;;;;;;;;;;;;;;-1.94;83.93;97742.06;30001;982;1877;-68
2021/11/24 01:05:44;;;;;;;;;;;;;;;-1.93;83.80;97742.88;30001;982;1882;-68
2021/11/24 01:06:16;;;;;;;;;;;;;;;-1.94;83.72;97734.09;30001;983;1859;-69
2021/11/24 01:06:50;;;;;;;;;;;;;;;-1.94;83.92;97738.59;30001;983;1876;-67
2021/11/24 01:07:21;;;;;;;;;;;;;;;-1.95;84.12;97731.63;30001;983;1876;-67
2021/11/24 01:07:52;;;;;;;;;;;;;;;-1.95;84.08;97739.59;30001;983;1863;-68
2021/11/24 01:08:22;;;;;;;;;;;;;;;-1.96;84.18;97730.78;30001;983;1872;-67
2021/11/24 01:08:53;;;;;;;;;;;;;;;-1.96;84.25;97738.78;30001;983;1881;-69
2021/11/24 01:09:24;;;;;;;;;;;;;;;-1.96;83.92;97743.28;30001;983;1877;-68
2021/11/24 01:09:55;;;;;;;;;;;;;;;-1.97;83.81;97742.44;30001;983;1881;-67
2021/11/24 01:10:26;;;;;;;;;;;;;;;-1.98;84.19;97743.47;30001;983;1832;-69
2021/11/24 01:10:57;;;;;;;;;;;;;;;-2.00;83.89;97736.69;30001;982;1881;-68
2021/11/24 01:11:28;;;;;;;;;;;;;;;-2.02;84.07;97744.84;30001;982;1877;-68
2021/11/24 01:11:59;;;;;;;;;;;;;;;-2.08;84.28;97741.12;30001;982;1881;-68
2021/11/24 01:12:30;;;;;;;;;;;;;;;-2.12;84.56;97739.88;30001;982;1860;-67
2021/11/24 01:13:01;;;;;;;;;;;;;;;-2.12;84.37;97744.37;30001;982;1877;-69
2021/11/24 01:13:34;;;;;;;;;;;;;;;-2.12;84.44;97739.88;30001;983;1876;-68
2021/11/24 01:14:05;;;;;;;;;;;;;;;-2.12;84.43;97739.06;30001;983;1836;-66
2021/11/24 01:14:37;;;;;;;;;;;;;;;-2.12;84.37;97745.22;30001;983;1859;-68
2021/11/24 01:15:09;;;;;;;;;;;;;;;-2.11;84.42;97741.53;30001;983;1877;-67
2021/11/24 01:15:41;;;;;;;;;;;;;;;-2.10;84.53;97743.19;30001;983;1877;-68
2021/11/24 01:16:12;;;;;;;;;;;;;;;-2.08;84.56;97741.12;30001;983;1881;-68
2021/11/24 01:16:44;;;;;;;;;;;;;;;-2.09;84.67;97739.50;30001;983;1877;-67
2021/11/24 01:17:15;;;;;;;;;;;;;;;-2.08;84.41;97740.34;30001;983;1881;-68
2021/11/24 01:17:46;;;;;;;;;;;;;;;-2.09;84.53;97739.50;30001;983;1877;-68
2021/11/24 01:18:17;;;;;;;;;;;;;;;-2.06;84.56;97744.41;30001;983;1881;-67
2021/11/24 01:18:48;;;;;;;;;;;;;;;-2.05;84.40;97740.75;30001;982;1877;-68
2021/11/24 01:19:19;;;;;;;;;;;;;;;-2.06;84.29;97739.09;30001;982;1881;-67
2021/11/24 01:19:50;;;;;;;;;;;;;;;-2.05;84.44;97739.91;30001;982;1859;-67
2021/11/24 01:20:20;;;;;;;;;;;;;;;-2.06;84.45;97744.41;30001;982;1877;-68
2021/11/24 01:20:52;;;;;;;;;;;;;;;-2.07;84.29;97742.78;30001;983;1876;-67
2021/11/24 01:21:22;;;;;;;;;;;;;;;-2.08;84.29;97735.00;30001;983;1863;-67
2021/11/24 01:21:55;;;;;;;;;;;;;;;-2.13;84.24;97734.75;30001;983;1872;-67
2021/11/24 01:22:25;;;;;;;;;;;;;;;-2.18;84.42;97735.34;30001;983;1881;-57
2021/11/24 01:22:59;;;;;;;;;;;;;;;-2.19;84.61;97733.69;30001;983;1877;-69
2021/11/24 01:23:30;;;;;;;;;;;;;;;-2.17;84.61;97736.16;30001;983;1881;-68
2021/11/24 01:24:01;;;;;;;;;;;;;;;-2.17;84.60;97741.47;30001;983;1877;-68
2021/11/24 01:24:32;;;;;;;;;;;;;;;-2.16;84.61;97735.13;30001;983;1881;-68
2021/11/24 01:25:03;;;;;;;;;;;;;;;-2.15;84.61;97734.94;30001;983;1877;-68
2021/11/24 01:25:34;;;;;;;;;;;;;;;-2.14;84.84;97735.78;30001;983;1881;-70
2021/11/24 01:26:05;;;;;;;;;;;;;;;-2.15;84.72;97742.09;30001;982;1877;-67
2021/11/24 01:26:38;;;;;;;;;;;;;;;-2.16;84.80;97735.97;30001;982;1864;-69
2021/11/24 01:27:09;;;;;;;;;;;;;;;-2.17;84.69;97741.47;30001;982;1873;-68
2021/11/24 01:27:41;;;;;;;;;;;;;;;-2.18;84.46;97735.34;30001;982;1882;-68
2021/11/24 01:28:12;;;;;;;;;;;;;;;-2.18;84.57;97738.00;30001;982;1877;-68
2021/11/24 01:28:43;;;;;;;;;;;;;;;-2.18;84.49;97742.50;30001;983;1881;-68
2021/11/24 01:29:14;;;;;;;;;;;;;;;-2.18;84.59;97735.34;30001;983;1876;-68
2021/11/24 01:29:44;;;;;;;;;;;;;;;-2.16;84.64;97738.63;30001;983;1881;-58
2021/11/24 01:30:16;;;;;;;;;;;;;;;-2.17;84.67;97739.63;30001;983;1877;-68
2021/11/24 01:30:47;;;;;;;;;;;;;;;-2.18;84.48;97738.00;30001;983;1881;-67
2021/11/24 01:31:19;;;;;;;;;;;;;;;-2.18;84.47;97745.97;30001;983;1877;-67
2021/11/24 01:31:50;;;;;;;;;;;;;;;-2.20;84.48;97737.34;30001;983;1864;-59
2021/11/24 01:32:20;;;;;;;;;;;;;;;-2.21;84.50;97735.72;30001;983;1873;-58
2021/11/24 01:32:51;;;;;;;;;;;;;;;-2.21;84.71;97734.88;30001;982;1881;-68
2021/11/24 01:33:22;;;;;;;;;;;;;;;-2.22;84.79;97727.94;30001;982;1877;-69
2021/11/24 01:33:53;;;;;;;;;;;;;;;-2.24;84.75;97735.28;30001;982;1881;-68
2021/11/24 01:34:24;;;;;;;;;;;;;;;-2.26;84.86;97727.47;30001;982;1877;-58
2021/11/24 01:34:58;;;;;;;;;;;;;;;-2.26;84.67;97732.81;30001;982;1882;-68
2021/11/24 01:35:29;;;;;;;;;;;;;;;-2.27;84.74;97728.50;30001;982;1877;-70
2021/11/24 01:36:01;;;;;;;;;;;;;;;-2.27;84.78;97725.84;30001;983;1881;-68
2021/11/24 01:36:32;;;;;;;;;;;;;;;-2.26;85.01;97727.47;30001;983;1859;-68
2021/11/24 01:37:02;;;;;;;;;;;;;;;-2.25;84.76;97730.97;30001;983;1876;-68
2021/11/24 01:37:34;;;;;;;;;;;;;;;-2.25;85.02;97729.13;30001;983;1877;-68
2021/11/24 01:38:05;;;;;;;;;;;;;;;-2.26;85.03;97727.47;30001;983;1881;-68
2021/11/24 01:38:36;;;;;;;;;;;;;;;-2.26;84.87;97726.66;30001;983;1877;-68
2021/11/24 01:39:07;;;;;;;;;;;;;;;-2.25;84.96;97729.13;30001;983;1881;-68
2021/11/24 01:39:38;;;;;;;;;;;;;;;-2.26;84.92;97730.13;30001;983;1877;-69
2021/11/24 01:40:10;;;;;;;;;;;;;;;-2.27;84.78;97723.19;30001;982;1864;-69
2021/11/24 01:40:43;;;;;;;;;;;;;;;-2.27;84.64;97730.34;30001;982;1873;-68
2021/11/24 01:41:15;;;;;;;;;;;;;;;-2.31;84.86;97727.22;30001;965;1898;-68
2021/11/24 01:41:46;;;;;;;;;;;;;;;-2.31;84.68;97724.56;30001;982;1877;-68
2021/11/24 01:42:17;;;;;;;;;;;;;;;-2.29;84.76;97727.03;30001;982;1882;-68
2021/11/24 01:42:48;;;;;;;;;;;;;;;-2.29;84.90;97727.88;30001;983;1859;-67
2021/11/24 01:43:19;;;;;;;;;;;;;;;-2.28;84.67;97724.19;30001;983;1876;-70
2021/11/24 01:43:49;;;;;;;;;;;;;;;-2.28;84.77;97724.19;30001;983;1876;-69
2021/11/24 01:44:22;;;;;;;;;;;;;;;-2.28;85.02;97723.38;30001;983;1881;-68
2021/11/24 01:44:53;;;;;;;;;;;;;;;-2.28;85.07;97718.06;30001;983;1877;-70
2021/11/24 01:45:24;;;;;;;;;;;;;;;-2.30;84.90;97723.56;30001;983;1881;-70
2021/11/24 01:45:55;;;;;;;;;;;;;;;-2.31;84.96;97719.25;30001;983;1877;-68
2021/11/24 01:46:27;;;;;;;;;;;;;;;-2.32;85.13;97725.59;30001;983;1881;-69
2021/11/24 01:46:59;;;;;;;;;;;;;;;-2.31;85.06;97724.56;30001;983;1877;-70
2021/11/24 01:47:30;;;;;;;;;;;;;;;-2.33;85.01;97720.47;30001;983;1881;-69
2021/11/24 01:48:01;;;;;;;;;;;;;;;-2.32;84.90;97728.25;30001;982;1859;-68
2021/11/24 01:48:32;;;;;;;;;;;;;;;-2.34;84.92;97721.47;30001;982;1860;-69
2021/11/24 01:49:03;;;;;;;;;;;;;;;-2.40;85.53;97723.88;30001;982;1859;-68
2021/11/24 01:49:34;;;;;;;;;;;;;;;-2.42;85.44;97717.09;30001;982;1877;-69
2021/11/24 01:50:06;;;;;;;;;;;;;;;-2.42;85.56;97717.09;30001;982;1860;-69
2021/11/24 01:50:38;;;;;;;;;;;;;;;-2.40;85.57;97725.72;30001;983;1876;-70
2021/11/24 01:51:09;;;;;;;;;;;;;;;-2.43;85.33;97720.81;30001;983;1876;-69
2021/11/24 01:51:40;;;;;;;;;;;;;;;-2.41;85.45;97721.41;30001;983;1881;-70
2021/11/24 01:52:10;;;;;;;;;;;;;;;-2.40;85.37;97720.41;30001;983;1877;-69
2021/11/24 01:52:41;;;;;;;;;;;;;;;-2.41;85.21;97714.25;30001;983;1881;-67
2021/11/24 01:53:12;;;;;;;;;;;;;;;-2.41;85.35;97719.56;30001;983;1859;-68
2021/11/24 01:53:43;;;;;;;;;;;;;;;-2.42;85.61;97719.75;30001;983;1877;-68
2021/11/24 01:54:15;;;;;;;;;;;;;;;-2.43;85.60;97720.81;30001;983;1877;-68
2021/11/24 01:54:45;;;;;;;;;;;;;;;-2.42;85.45;97719.75;30001;983;1864;-68
2021/11/24 01:55:17;;;;;;;;;;;;;;;-2.42;85.45;97719.75;30001;982;1873;-70
2021/11/24 01:55:48;;;;;;;;;;;;;;;-2.41;85.56;97713.44;30001;982;1881;-68
2021/11/24 01:56:21;;;;;;;;;;;;;;;-2.42;85.14;97717.94;30001;982;1877;-69
2021/11/24 01:56:53;;;;;;;;;;;;;;;-2.40;85.28;97720.41;30001;982;1881;-68
2021/11/24 01:57:28;;;;;;;;;;;;;;;-2.39;85.43;97716.72;30001;982;1860;-69
2021/11/24 01:58:00;;;;;;;;;;;;;;;-2.39;85.40;97719.38;30001;983;1876;-69
2021/11/24 01:58:33;;;;;;;;;;;;;;;-2.42;85.08;97714.44;30001;983;1876;-69
2021/11/24 01:59:04;;;;;;;;;;;;;;;-2.42;85.03;97717.09;30001;983;1881;-69
2021/11/24 01:59:35;;;;;;;;;;;;;;;-2.43;85.13;97716.31;30001;983;1876;-69
2021/11/24 02:00:08;;;;;;;;;;;;;;;-2.42;85.37;97714.44;30001;983;1881;-69
2021/11/24 02:00:39;;;;;;;;;;;;;;;-2.41;85.40;97713.44;30001;983;1859;-69
2021/11/24 02:01:10;;;;;;;;;;;;;;;-2.42;85.29;97711.78;30001;983;1877;-68
2021/11/24 02:01:42;;;;;;;;;;;;;;;-2.42;85.11;97714.44;30001;983;1877;-69
2021/11/24 02:02:13;;;;;;;;;;;;;;;-2.43;85.01;97716.31;30001;983;1881;-69
2021/11/24 02:02:44;;;;;;;;;;;;;;;-2.43;85.38;97710.16;30001;983;1859;-69
2021/11/24 02:03:15;;;;;;;;;;;;;;;-2.43;85.28;97710.16;30001;982;1877;-69
2021/11/24 02:03:45;;;;;;;;;;;;;;;-2.42;85.12;97706.47;30001;982;1877;-70
2021/11/24 02:04:17;;;;;;;;;;;;;;;-2.43;85.19;97705.69;30001;982;1786;-70
2021/11/24 02:04:48;;;;;;;;;;;;;;;-2.42;85.15;97706.47;30001;982;1877;-69
2021/11/24 02:05:19;;;;;;;;;;;;;;;-2.43;84.98;97705.69;30001;983;1863;-69
2021/11/24 02:05:50;;;;;;;;;;;;;;;-2.43;85.27;97699.53;30001;983;1872;-69
2021/11/24 02:06:21;;;;;;;;;;;;;;;-2.42;85.19;97711.78;30001;983;1881;-69
2021/11/24 02:06:53;;;;;;;;;;;;;;;-2.42;85.21;97703.81;30001;983;1876;-70
2021/11/24 02:07:25;;;;;;;;;;;;;;;-2.42;85.32;97698.50;30001;983;1881;-69
2021/11/24 02:07:56;;;;;;;;;;;;;;;-2.42;85.27;97695.84;30001;983;1877;-69
2021/11/24 02:08:31;;;;;;;;;;;;;;;-2.42;85.49;97703.81;30001;983;1881;-70
2021/11/24 02:09:02;;;;;;;;;;;;;;;-2.43;85.17;97695.06;30001;983;1877;-70
2021/11/24 02:09:33;;;;;;;;;;;;;;;-2.43;85.15;97703.03;30001;983;1881;-57
2021/11/24 02:10:05;;;;;;;;;;;;;;;-2.43;85.26;97689.75;30001;983;1877;-68
2021/11/24 02:10:36;;;;;;;;;;;;;;;-2.44;85.15;97697.91;30001;982;1864;-58
2021/11/24 02:11:08;;;;;;;;;;;;;;;-2.42;85.17;97693.19;30001;982;1873;-69
2021/11/24 02:11:41;;;;;;;;;;;;;;;-2.42;85.30;97701.16;30001;982;1882;-69
2021/11/24 02:12:12;;;;;;;;;;;;;;;-2.44;85.28;97697.91;30001;982;1877;-69
2021/11/24 02:12:43;;;;;;;;;;;;;;;-2.43;85.36;97699.53;30001;982;1882;-70
2021/11/24 02:13:14;;;;;;;;;;;;;;;-2.42;85.51;97698.50;30001;983;1859;-70
2021/11/24 02:13:45;;;;;;;;;;;;;;;-2.43;85.35;97696.88;30001;983;1877;-67
2021/11/24 02:14:17;;;;;;;;;;;;;;;-2.43;85.27;97696.88;30001;983;1877;-69
2021/11/24 02:14:48;;;;;;;;;;;;;;;-2.42;85.44;97703.81;30001;983;1881;-69
2021/11/24 02:15:19;;;;;;;;;;;;;;;-2.43;85.47;97689.75;30001;983;1859;-68
2021/11/24 02:15:50;;;;;;;;;;;;;;;-2.42;85.25;97695.84;30001;983;1763;-69
2021/11/24 02:16:21;;;;;;;;;;;;;;;-2.42;85.41;97698.50;30001;983;1877;-69
2021/11/24 02:16:53;;;;;;;;;;;;;;;-2.42;85.27;97694.00;30001;983;1881;-69
2021/11/24 02:17:24;;;;;;;;;;;;;;;-2.41;85.16;97689.50;30001;982;1877;-69
2021/11/24 02:17:59;;;;;;;;;;;;;;;-2.41;85.28;97687.69;30001;982;1864;-69
2021/11/24 02:18:30;;;;;;;;;;;;;;;-2.39;85.59;97692.81;30001;982;1873;-69
2021/11/24 02:19:01;;;;;;;;;;;;;;;-2.39;85.26;97684.84;30001;982;1882;-68
2021/11/24 02:19:33;;;;;;;;;;;;;;;-2.39;85.24;97690.16;30001;982;1877;-69
2021/11/24 02:20:05;;;;;;;;;;;;;;;-2.39;85.44;97684.84;30001;982;1864;-70
2021/11/24 02:20:38;;;;;;;;;;;;;;;-2.38;85.27;97691.78;30001;983;1854;-59
2021/11/24 02:21:10;;;;;;;;;;;;;;;-2.38;85.37;97686.47;30001;983;1881;-69
2021/11/24 02:21:48;;;;;;;;;;;;;;;-2.37;85.48;97682.81;30001;983;1877;-70
2021/11/24 02:22:19;;;;;;;;;;;;;;;-2.36;85.35;97692.44;30001;983;1881;-70
2021/11/24 02:22:50;;;;;;;;;;;;;;;-2.37;85.35;97677.50;30001;983;1877;-69
2021/11/24 02:23:21;;;;;;;;;;;;;;;-2.38;85.27;97676.66;30001;983;1881;-69
2021/11/24 02:23:52;;;;;;;;;;;;;;;-2.37;85.46;97677.50;30001;983;1877;-69
2021/11/24 02:24:25;;;;;;;;;;;;;;;-2.35;85.04;97686.09;30001;983;1881;-69
2021/11/24 02:24:55;;;;;;;;;;;;;;;-2.33;85.03;97683.25;30001;982;1877;-68
2021/11/24 02:25:26;;;;;;;;;;;;;;;-2.33;85.05;97683.25;30001;982;1864;-70
2021/11/24 02:25:57;;;;;;;;;;;;;;;-2.35;85.03;97670.16;30001;982;1873;-69
2021/11/24 02:26:28;;;;;;;;;;;;;;;-2.33;85.08;97673.44;30001;982;1864;-69
2021/11/24 02:27:00;;;;;;;;;;;;;;;-2.33;85.08;97670.78;30001;982;1873;-69
2021/11/24 02:27:31;;;;;;;;;;;;;;;-2.31;85.23;97670.59;30001;982;1882;-57
2021/11/24 02:28:01;;;;;;;;;;;;;;;-2.31;85.03;97670.59;30001;983;1876;-70
2021/11/24 02:28:32;;;;;;;;;;;;;;;-2.30;84.96;97667.75;30001;983;1881;-71
2021/11/24 02:29:03;;;;;;;;;;;;;;;-2.29;84.97;97671.22;30001;983;1877;-69
2021/11/24 02:29:34;;;;;;;;;;;;;;;-2.28;85.08;97671.03;30001;983;1881;-70
2021/11/24 02:30:06;;;;;;;;;;;;;;;-2.28;84.89;97671.03;30001;983;1876;-70
2021/11/24 02:30:37;;;;;;;;;;;;;;;-2.28;84.82;97663.06;30001;983;1881;-70
2021/11/24 02:31:17;;;;;;;;;;;;;;;-2.28;85.02;97667.53;30001;983;1859;-69
2021/11/24 02:31:49;;;;;;;;;;;;;;;-2.27;84.92;97671.84;30001;983;1877;-69
2021/11/24 02:32:20;;;;;;;;;;;;;;;-2.29;85.13;97669.37;30001;982;1877;-69
2021/11/24 02:32:51;;;;;;;;;;;;;;;-2.26;84.90;97669.00;30001;982;1864;-70
2021/11/24 02:33:22;;;;;;;;;;;;;;;-2.25;85.09;97665.31;30001;982;1873;-70
2021/11/24 02:33:54;;;;;;;;;;;;;;;-2.24;84.79;97656.34;30001;982;1882;-68
2021/11/24 02:34:26;;;;;;;;;;;;;;;-2.25;84.88;97654.69;30001;982;1877;-69
2021/11/24 02:34:57;;;;;;;;;;;;;;;-2.25;84.93;97665.31;30001;982;1882;-71
2021/11/24 02:35:28;;;;;;;;;;;;;;;-2.24;84.85;97655.53;30001;982;1877;-69
2021/11/24 02:35:59;;;;;;;;;;;;;;;-2.24;84.65;97656.34;30001;983;1863;-69
2021/11/24 02:36:30;;;;;;;;;;;;;;;-2.24;84.95;97655.53;30001;983;1872;-69
2021/11/24 02:37:03;;;;;;;;;;;;;;;-2.22;84.82;97656.97;30001;983;1881;-69
2021/11/24 02:37:34;;;;;;;;;;;;;;;-2.21;84.76;97661.28;30001;983;1877;-69
2021/11/24 02:38:06;;;;;;;;;;;;;;;-2.20;84.78;97654.94;30001;983;1881;-69
2021/11/24 02:38:37;;;;;;;;;;;;;;;-2.19;84.57;97653.09;30001;983;1877;-70
2021/11/24 02:39:13;;;;;;;;;;;;;;;-2.18;84.78;97660.87;30001;983;1881;-69
2021/11/24 02:39:47;;;;;;;;;;;;;;;-2.18;84.79;97655.56;30001;982;1877;-69
2021/11/24 02:40:20;;;;;;;;;;;;;;;-2.18;84.50;97655.56;30001;982;1881;-70
2021/11/24 02:40:53;;;;;;;;;;;;;;;-2.15;84.84;97655.19;30001;982;1877;-69
2021/11/24 02:41:23;;;;;;;;;;;;;;;-2.14;84.65;97651.50;30001;982;1864;-70
2021/11/24 02:41:54;;;;;;;;;;;;;;;-2.12;84.67;97652.16;30001;982;1873;-70
2021/11/24 02:42:26;;;;;;;;;;;;;;;-2.10;84.77;97652.78;30001;982;1864;-70
2021/11/24 02:42:57;;;;;;;;;;;;;;;-2.10;84.62;97652.78;30001;982;1873;-71
2021/11/24 02:43:29;;;;;;;;;;;;;;;-2.12;84.40;97657.47;30001;983;1881;-70
2021/11/24 02:44:19;;;;;;;;;;;;;;;-2.12;84.38;97654.81;30001;983;1877;-71
2021/11/24 02:44:51;;;;;;;;;;;;;;;-2.12;84.54;97654.81;30001;983;1877;-69
2021/11/24 02:45:23;;;;;;;;;;;;;;;-2.12;84.69;97652.16;30001;983;1877;-68
2021/11/24 02:45:53;;;;;;;;;;;;;;;-2.13;84.53;97647.84;30001;983;1881;-69
2021/11/24 02:46:25;;;;;;;;;;;;;;;-2.15;84.53;97652.53;30001;983;1877;-69
2021/11/24 02:47:05;;;;;;;;;;;;;;;-2.15;84.61;97655.19;30001;983;1881;-70
2021/11/24 02:47:37;;;;;;;;;;;;;;;-2.13;84.77;97655.00;30001;982;1859;-68
2021/11/24 02:48:08;;;;;;;;;;;;;;;-2.13;84.33;97647.84;30001;982;1877;-70